Time;durP1;ratioP1;P1;durP2;ratioP2;P2;SDS_P1;SDS_P2;PMS_P1;PMS_P2;Temp;Humidity;BMP_temperature;BMP_pressure;BME280_temperature;BME280_humidity;BME280_pressure;Samples;Min_cycle;Max_cycle;Signal;HPM_P1;HPM_P2
2023/04/17 00:02:16;;;;;;;29.42;21.83;;;11.50;99.90;;;;;;5033561;28;20690;-74
2023/04/17 00:04:44;;;;;;;25.63;20.90;;;11.50;99.90;;;;;;5026269;28;20696;-74
2023/04/17 00:07:11;;;;;;;26.15;21.35;;;11.50;99.90;;;;;;5031118;28;20290;-74
2023/04/17 00:09:38;;;;;;;26.00;20.80;;;11.50;99.90;;;;;;5030240;28;20217;-74
2023/04/17 00:12:06;;;;;;;30.40;24.80;;;11.50;99.90;;;;;;5024595;28;20235;-75
2023/04/17 00:14:33;;;;;;;31.35;23.52;;;11.40;99.90;;;;;;5017628;28;20313;-74
2023/04/17 00:17:00;;;;;;;27.58;21.70;;;11.40;99.90;;;;;;5018949;28;20279;-75
2023/04/17 00:19:27;;;;;;;27.42;21.88;;;11.40;99.90;;;;;;5025061;28;20232;-75
2023/04/17 00:21:54;;;;;;;28.63;23.75;;;11.50;99.90;;;;;;5019474;28;20206;-74
2023/04/17 00:24:21;;;;;;;32.65;24.80;;;11.50;99.90;;;;;;5017722;28;20216;-75
2023/04/17 00:26:48;;;;;;;32.45;23.27;;;11.40;99.90;;;;;;5023256;28;20287;-75
2023/04/17 00:29:16;;;;;;;28.67;22.92;;;11.50;99.90;;;;;;5024182;28;20626;-75
2023/04/17 00:31:43;;;;;;;26.40;23.45;;;11.40;99.90;;;;;;5021471;28;20303;-76
2023/04/17 00:34:10;;;;;;;31.45;24.85;;;11.40;99.90;;;;;;5025558;28;20689;-74
2023/04/17 00:36:37;;;;;;;32.47;24.48;;;11.40;99.90;;;;;;5031806;28;20234;-75
2023/04/17 00:39:03;;;;;;;27.02;22.65;;;11.40;99.90;;;;;;5025092;28;20207;-73
2023/04/17 00:41:30;;;;;;;28.08;23.90;;;11.30;99.90;;;;;;5026283;28;20199;-76
2023/04/17 00:43:57;;;;;;;28.58;22.83;;;11.30;99.90;;;;;;5022434;28;20267;-74
2023/04/17 00:46:26;;;;;;;32.58;25.33;;;11.30;99.90;;;;;;5026517;28;20200;-75
2023/04/17 00:48:53;;;;;;;30.52;24.85;;;11.30;99.90;;;;;;5019771;28;20605;-74
2023/04/17 00:51:20;;;;;;;27.90;23.42;;;11.30;99.90;;;;;;5023398;28;20286;-74
2023/04/17 00:53:47;;;;;;;28.83;24.90;;;11.30;99.90;;;;;;5018483;28;20591;-74
2023/04/17 00:56:14;;;;;;;26.27;21.35;;;11.30;99.90;;;;;;5032366;28;20244;-74
2023/04/17 00:58:44;;;;;;;31.83;25.00;;;11.20;99.90;;;;;;5031669;28;20237;-74
2023/04/17 01:01:11;;;;;;;29.63;24.20;;;11.20;99.90;;;;;;5021661;28;20215;-74
2023/04/17 01:03:40;;;;;;;30.08;24.48;;;11.20;99.90;;;;;;5032266;28;20298;-73
2023/04/17 01:06:07;;;;;;;33.35;26.25;;;11.30;99.90;;;;;;5027089;28;20209;-73
2023/04/17 01:08:41;;;;;;;33.08;23.33;;;11.10;99.90;;;;;;5027853;28;20285;-74
2023/04/17 01:11:08;;;;;;;31.48;24.88;;;11.10;99.90;;;;;;5038233;28;20254;-74
2023/04/17 01:13:35;;;;;;;26.38;22.92;;;11.10;99.90;;;;;;5025022;28;20708;-73
2023/04/17 01:16:01;;;;;;;33.78;24.60;;;11.10;99.90;;;;;;5034767;28;20195;-74
2023/04/17 01:18:29;;;;;;;32.67;25.73;;;11.20;99.90;;;;;;5020959;28;20620;-73
2023/04/17 01:20:58;;;;;;;33.33;23.88;;;11.20;99.90;;;;;;5025757;28;20203;-74
2023/04/17 01:23:27;;;;;;;35.65;26.83;;;11.20;99.90;;;;;;5024527;28;20285;-73
2023/04/17 01:25:55;;;;;;;30.00;25.15;;;11.20;99.90;;;;;;5015771;28;20202;-74
2023/04/17 01:28:22;;;;;;;32.83;26.52;;;11.10;99.90;;;;;;5017690;28;20206;-74
2023/04/17 01:30:49;;;;;;;33.20;26.30;;;11.10;99.90;;;;;;5019556;28;20315;-74
2023/04/17 01:33:16;;;;;;;31.98;28.52;;;11.20;99.90;;;;;;5018145;28;20228;-74
2023/04/17 01:35:43;;;;;;;32.17;25.88;;;11.10;99.90;;;;;;5020340;28;20224;-74
2023/04/17 01:38:10;;;;;;;33.38;25.17;;;11.10;99.90;;;;;;5016976;28;20211;-75
2023/04/17 01:40:37;;;;;;;31.80;26.40;;;11.10;99.90;;;;;;5019696;28;20285;-74
2023/04/17 01:43:05;;;;;;;36.13;26.95;;;11.20;99.90;;;;;;5017442;28;20262;-75
2023/04/17 01:45:32;;;;;;;32.95;25.50;;;11.10;99.90;;;;;;5020753;28;20318;-75
2023/04/17 01:48:00;;;;;;;32.90;27.40;;;11.10;99.90;;;;;;5029441;28;20217;-75
2023/04/17 01:50:27;;;;;;;29.80;26.17;;;11.10;99.90;;;;;;5035676;28;20211;-76
2023/04/17 01:52:55;;;;;;;37.08;28.05;;;11.10;99.90;;;;;;5027920;28;20202;-73
2023/04/17 01:55:22;;;;;;;34.25;25.80;;;11.00;99.90;;;;;;5031282;28;20300;-74
2023/04/17 01:57:50;;;;;;;34.00;26.02;;;11.00;99.90;;;;;;5018922;28;20223;-74
2023/04/17 02:00:20;;;;;;;34.58;27.10;;;11.00;99.90;;;;;;5033459;28;20253;-74
2023/04/17 02:02:47;;;;;;;30.73;24.52;;;10.90;99.90;;;;;;5016371;28;20257;-73
2023/04/17 02:05:15;;;;;;;35.40;26.58;;;10.90;99.90;;;;;;5026397;28;20227;-75
2023/04/17 02:07:41;;;;;;;36.45;26.40;;;10.90;99.90;;;;;;5032845;28;20221;-74
2023/04/17 02:10:09;;;;;;;31.48;25.88;;;10.90;99.90;;;;;;5032491;28;20200;-76
2023/04/17 02:12:36;;;;;;;33.20;26.08;;;10.80;99.90;;;;;;5024205;28;20207;-74
2023/04/17 02:15:05;;;;;;;32.08;26.58;;;10.90;99.90;;;;;;5019170;28;20229;-74
2023/04/17 02:17:33;;;;;;;38.60;28.70;;;10.90;99.90;;;;;;5032082;28;20209;-73
2023/04/17 02:20:00;;;;;;;32.75;27.42;;;10.90;99.90;;;;;;5027593;28;20211;-73
2023/04/17 02:22:27;;;;;;;38.15;27.88;;;11.00;99.90;;;;;;5031567;28;20429;-74
2023/04/17 02:24:54;;;;;;;41.05;28.13;;;10.80;99.90;;;;;;5014918;28;20320;-74
2023/04/17 02:27:20;;;;;;;37.28;28.52;;;10.90;99.90;;;;;;5034510;28;20198;-75
2023/04/17 02:29:47;;;;;;;36.95;27.85;;;10.90;99.90;;;;;;5021875;28;20215;-74
2023/04/17 02:32:15;;;;;;;34.40;27.00;;;10.80;99.90;;;;;;5020460;28;20290;-75
2023/04/17 02:34:45;;;;;;;36.08;28.83;;;10.80;99.90;;;;;;5034013;28;20232;-72
2023/04/17 02:37:12;;;;;;;33.47;25.58;;;10.80;99.90;;;;;;5030099;28;20685;-75
2023/04/17 02:39:39;;;;;;;39.00;29.27;;;10.80;99.90;;;;;;5030464;28;20294;-74
2023/04/17 02:42:06;;;;;;;40.35;30.42;;;10.80;99.90;;;;;;5022178;28;20197;-74
2023/04/17 02:44:33;;;;;;;33.72;28.63;;;10.80;99.90;;;;;;5032081;28;20220;-73
2023/04/17 02:47:00;;;;;;;44.95;30.75;;;10.90;99.90;;;;;;5027478;28;20787;-74
2023/04/17 02:49:27;;;;;;;37.10;28.90;;;10.90;99.90;;;;;;5027023;28;20210;-75
2023/04/17 02:51:55;;;;;;;35.33;28.05;;;10.80;99.90;;;;;;5019596;28;20629;-74
2023/04/17 02:54:22;;;;;;;37.45;29.30;;;10.80;99.90;;;;;;5029979;28;20222;-74
2023/04/17 02:56:51;;;;;;;32.78;25.55;;;10.80;99.90;;;;;;5031252;28;20555;-73
2023/04/17 02:59:27;;;;;;;39.40;30.50;;;10.80;99.90;;;;;;5033556;28;20624;-76
2023/04/17 03:02:03;;;;;;;32.72;26.88;;;10.80;99.90;;;;;;5031703;28;20224;-75
2023/04/17 03:04:29;;;;;;;36.25;30.05;;;10.80;99.90;;;;;;5020079;28;20236;-74
2023/04/17 03:06:59;;;;;;;34.80;29.17;;;10.80;99.90;;;;;;5027750;28;20233;-75
2023/04/17 03:09:26;;;;;;;41.65;31.08;;;10.90;99.90;;;;;;5024710;28;20206;-74
2023/04/17 03:11:53;;;;;;;37.10;28.40;;;10.80;99.90;;;;;;5021123;28;20203;-74
2023/04/17 03:14:20;;;;;;;36.40;27.58;;;10.80;99.90;;;;;;5017615;28;20239;-74
2023/04/17 03:16:47;;;;;;;39.47;30.45;;;10.80;99.90;;;;;;5020373;28;20286;-74
2023/04/17 03:19:14;;;;;;;38.65;30.50;;;10.80;99.90;;;;;;5019285;28;20557;-73
2023/04/17 03:21:56;;;;;;;38.08;29.50;;;10.70;99.90;;;;;;5024235;28;20672;-75
2023/04/17 03:24:25;;;;;;;42.70;29.60;;;10.70;99.90;;;;;;5035832;28;20616;-74
2023/04/17 03:26:52;;;;;;;41.67;29.33;;;10.70;99.90;;;;;;5023501;28;20544;-74
2023/04/17 03:29:28;;;;;;;37.97;27.75;;;10.70;99.90;;;;;;5033303;28;20207;-75
2023/04/17 03:31:55;;;;;;;40.15;29.55;;;10.60;99.90;;;;;;5029828;28;20205;-74
2023/04/17 03:34:22;;;;;;;39.03;28.73;;;10.60;99.90;;;;;;5014782;28;20239;-74
2023/04/17 03:36:49;;;;;;;39.30;29.67;;;10.60;99.90;;;;;;5019519;28;20285;-75
2023/04/17 03:39:16;;;;;;;38.67;29.77;;;10.60;99.90;;;;;;5024389;28;20288;-75
2023/04/17 03:41:44;;;;;;;46.10;31.27;;;10.60;99.90;;;;;;5019686;28;20202;-75
2023/04/17 03:44:11;;;;;;;39.95;30.02;;;10.60;99.90;;;;;;5033407;28;20239;-76
2023/04/17 03:46:38;;;;;;;47.20;32.05;;;10.60;99.90;;;;;;5015911;28;20285;-75
2023/04/17 03:49:05;;;;;;;42.08;30.50;;;10.50;99.90;;;;;;5024849;28;20203;-73
2023/04/17 03:51:32;;;;;;;41.05;32.00;;;10.50;99.90;;;;;;5027495;28;20653;-75
2023/04/17 03:53:59;;;;;;;42.22;31.08;;;10.40;99.90;;;;;;5020370;28;20748;-74
2023/04/17 03:56:25;;;;;;;39.30;30.33;;;10.30;99.90;;;;;;5019802;28;20283;-74
2023/04/17 03:58:55;;;;;;;38.47;30.52;;;10.30;99.90;;;;;;5024630;28;20626;-75
2023/04/17 04:01:22;;;;;;;40.20;30.55;;;10.30;99.90;;;;;;5023303;28;20209;-75
2023/04/17 04:03:50;;;;;;;42.05;31.13;;;10.20;99.90;;;;;;5023219;28;21008;-74
2023/04/17 04:06:19;;;;;;;40.03;32.47;;;10.20;99.90;;;;;;5032519;28;20192;-75
2023/04/17 04:08:46;;;;;;;39.15;29.70;;;10.20;99.90;;;;;;5031890;28;20629;-75
2023/04/17 04:11:13;;;;;;;37.75;31.30;;;10.20;99.90;;;;;;5026876;28;20196;-76
2023/04/17 04:13:40;;;;;;;35.90;28.33;;;10.20;99.90;;;;;;5030316;28;20217;-74
2023/04/17 04:16:08;;;;;;;40.25;30.48;;;10.20;99.90;;;;;;5024161;28;20197;-74
2023/04/17 04:18:36;;;;;;;40.58;31.48;;;10.20;99.90;;;;;;5025270;28;20294;-74
2023/04/17 04:21:03;;;;;;;41.38;30.98;;;10.30;99.90;;;;;;5031426;28;20680;-74
2023/04/17 04:23:30;;;;;;;40.50;32.15;;;10.20;99.90;;;;;;5030453;28;20203;-75
2023/04/17 04:26:00;;;;;;;40.03;33.42;;;10.10;99.90;;;;;;5025301;28;20548;-75
2023/04/17 04:28:29;;;;;;;40.13;31.35;;;10.20;99.90;;;;;;5027607;28;20206;-75
2023/04/17 04:30:57;;;;;;;39.65;30.85;;;10.20;99.90;;;;;;5019797;28;20679;-75
2023/04/17 04:33:26;;;;;;;42.17;30.85;;;10.30;99.90;;;;;;5022634;28;20206;-75
2023/04/17 04:35:54;;;;;;;40.47;28.77;;;10.30;99.90;;;;;;5028523;28;20245;-75
2023/04/17 04:38:28;;;;;;;46.53;33.08;;;10.30;99.90;;;;;;5021255;28;20247;-74
2023/04/17 04:41:00;;;;;;;40.15;28.88;;;10.30;99.90;;;;;;5020941;28;20656;-74
2023/04/17 04:43:28;;;;;;;45.28;31.35;;;10.30;99.90;;;;;;5025557;28;20290;-73
2023/04/17 04:45:56;;;;;;;41.80;31.98;;;10.30;99.90;;;;;;5026084;28;20276;-75
2023/04/17 04:48:24;;;;;;;45.58;33.22;;;10.30;99.90;;;;;;5028956;28;20206;-74
2023/04/17 04:50:51;;;;;;;41.88;30.13;;;10.30;99.90;;;;;;5024163;28;20611;-74
2023/04/17 04:53:18;;;;;;;50.13;33.25;;;10.40;99.90;;;;;;5031120;28;20293;-74
2023/04/17 04:55:45;;;;;;;44.35;31.23;;;10.20;99.90;;;;;;5025160;28;20226;-75
2023/04/17 04:58:12;;;;;;;46.00;32.67;;;10.30;99.90;;;;;;5034114;28;20200;-74
2023/04/17 05:00:39;;;;;;;43.47;33.30;;;10.30;99.90;;;;;;5024879;28;20204;-74
2023/04/17 05:03:06;;;;;;;51.00;33.85;;;10.20;99.90;;;;;;5034282;28;20663;-75
2023/04/17 05:05:36;;;;;;;43.55;32.22;;;10.30;99.90;;;;;;5028181;28;20243;-75
2023/04/17 05:08:03;;;;;;;37.30;29.02;;;10.30;99.90;;;;;;5028544;28;20221;-74
2023/04/17 05:10:30;;;;;;;46.25;33.10;;;10.30;99.90;;;;;;5030410;28;20295;-74
2023/04/17 05:12:57;;;;;;;48.03;32.70;;;10.30;99.90;;;;;;5018689;28;20200;-75
2023/04/17 05:15:25;;;;;;;41.63;32.75;;;10.30;99.90;;;;;;5024440;28;20324;-73
2023/04/17 05:17:52;;;;;;;46.17;33.95;;;10.30;99.90;;;;;;5026891;28;20198;-74
2023/04/17 05:20:19;;;;;;;44.00;31.20;;;10.30;99.90;;;;;;5024426;28;20292;-74
2023/04/17 05:22:48;;;;;;;45.72;31.73;;;10.30;99.90;;;;;;5018026;28;20270;-75
2023/04/17 05:25:16;;;;;;;42.97;29.70;;;10.30;99.90;;;;;;5025581;28;20253;-76
2023/04/17 05:27:43;;;;;;;43.67;31.15;;;10.40;99.90;;;;;;5024527;28;20617;-74
2023/04/17 05:30:11;;;;;;;38.72;30.13;;;10.50;99.90;;;;;;5023644;28;20207;-76
2023/04/17 05:32:37;;;;;;;36.78;29.40;;;10.50;99.90;;;;;;5019110;28;20202;-75
2023/04/17 05:35:05;;;;;;;34.30;28.30;;;10.60;99.90;;;;;;5022657;28;20638;-76
2023/04/17 05:37:32;;;;;;;42.08;28.60;;;10.70;99.90;;;;;;5027210;28;20571;-75
2023/04/17 05:40:00;;;;;;;47.83;33.33;;;10.80;99.90;;;;;;5023830;28;20684;-74
2023/04/17 05:42:27;;;;;;;36.95;29.15;;;10.80;99.90;;;;;;5019426;28;20202;-75
2023/04/17 05:44:54;;;;;;;37.35;30.90;;;10.80;99.90;;;;;;5029425;28;20700;-75
2023/04/17 05:47:21;;;;;;;31.75;25.92;;;10.80;99.90;;;;;;5021295;28;20591;-75
2023/04/17 05:49:50;;;;;;;40.95;29.38;;;10.90;99.90;;;;;;5016447;28;20237;-74
2023/04/17 05:52:17;;;;;;;38.13;29.45;;;11.00;99.90;;;;;;5023404;28;20204;-74
2023/04/17 05:54:44;;;;;;;34.50;28.63;;;11.00;99.90;;;;;;5032509;28;21714;-76
2023/04/17 05:57:13;;;;;;;40.63;30.85;;;11.10;99.90;;;;;;5026324;28;20208;-75
2023/04/17 05:59:40;;;;;;;37.53;26.92;;;11.10;99.90;;;;;;5029331;28;20657;-73
2023/04/17 06:02:07;;;;;;;34.30;27.70;;;11.10;99.90;;;;;;5023305;28;20268;-73
2023/04/17 06:04:34;;;;;;;37.60;29.80;;;11.20;99.90;;;;;;5028783;28;20235;-75
2023/04/17 06:07:04;;;;;;;37.97;27.38;;;11.30;99.90;;;;;;5031950;28;20337;-74
2023/04/17 06:09:32;;;;;;;36.95;27.13;;;11.40;99.90;;;;;;5025139;28;20242;-74
2023/04/17 06:11:59;;;;;;;38.97;28.92;;;11.60;99.90;;;;;;5030806;28;20204;-73
2023/04/17 06:14:27;;;;;;;34.80;28.77;;;11.60;99.90;;;;;;5026878;28;20712;-74
2023/04/17 06:16:54;;;;;;;38.85;30.27;;;11.70;99.90;;;;;;5029844;28;20195;-72
2023/04/17 06:19:22;;;;;;;36.58;29.65;;;11.70;99.90;;;;;;5024869;28;20231;-73
2023/04/17 06:21:50;;;;;;;33.50;27.58;;;11.80;99.90;;;;;;5020434;28;20682;-73
2023/04/17 06:24:17;;;;;;;38.33;31.27;;;11.90;99.90;;;;;;5023641;28;20237;-72
2023/04/17 06:26:44;;;;;;;37.15;30.30;;;11.90;99.90;;;;;;5016458;28;20215;-76
2023/04/17 06:29:12;;;;;;;43.30;30.98;;;12.00;99.90;;;;;;5026814;28;20361;-75
2023/04/17 06:31:41;;;;;;;34.83;28.67;;;12.10;99.90;;;;;;5027350;28;20617;-74
2023/04/17 06:34:08;;;;;;;34.15;28.00;;;12.10;99.90;;;;;;5028533;28;20718;-72
2023/04/17 06:36:37;;;;;;;36.78;28.10;;;12.30;99.90;;;;;;5017669;28;20231;-70
2023/04/17 06:39:04;;;;;;;36.75;29.65;;;12.30;99.90;;;;;;5015992;28;20215;-75
2023/04/17 06:41:32;;;;;;;37.65;29.00;;;12.40;99.90;;;;;;5018405;28;20215;-72
2023/04/17 06:43:59;;;;;;;40.90;31.20;;;12.50;99.90;;;;;;5027752;28;20223;-73
2023/04/17 06:46:26;;;;;;;42.13;28.67;;;12.50;99.90;;;;;;5029299;28;20547;-69
2023/04/17 06:48:56;;;;;;;39.03;29.95;;;12.60;99.90;;;;;;5020002;28;20196;-75
2023/04/17 06:51:24;;;;;;;38.25;28.83;;;12.80;99.90;;;;;;5020707;28;20204;-73
2023/04/17 06:53:51;;;;;;;36.90;30.88;;;12.80;99.90;;;;;;5022042;28;20254;-75
2023/04/17 06:56:18;;;;;;;39.38;31.27;;;12.90;99.90;;;;;;5025704;28;20865;-75
2023/04/17 06:58:46;;;;;;;41.58;32.70;;;13.10;99.90;;;;;;5031844;28;20219;-73
2023/04/17 07:01:14;;;;;;;33.85;28.17;;;13.10;99.90;;;;;;5031937;28;20204;-74
2023/04/17 07:03:42;;;;;;;33.60;27.50;;;13.30;99.90;;;;;;5021471;28;20208;-72
2023/04/17 07:06:10;;;;;;;36.47;29.33;;;13.40;99.90;;;;;;5023513;28;20197;-72
2023/04/17 07:08:37;;;;;;;43.65;28.95;;;13.60;99.90;;;;;;5027549;28;20207;-72
2023/04/17 07:11:04;;;;;;;35.55;28.65;;;13.80;99.90;;;;;;5025142;28;20200;-72
2023/04/17 07:13:32;;;;;;;32.88;26.98;;;14.00;99.90;;;;;;5019826;28;20670;-77
2023/04/17 07:15:59;;;;;;;33.30;29.30;;;14.30;99.90;;;;;;5023760;28;20221;-74
2023/04/17 07:18:28;;;;;;;33.13;27.42;;;14.60;99.90;;;;;;5019996;28;20214;-74
2023/04/17 07:20:55;;;;;;;34.25;28.60;;;14.90;99.90;;;;;;5020819;28;20200;-73
2023/04/17 07:23:24;;;;;;;30.35;27.05;;;15.20;99.90;;;;;;5018893;28;20257;-74
2023/04/17 07:25:51;;;;;;;34.70;28.97;;;15.40;99.90;;;;;;5022601;28;20222;-70
2023/04/17 07:28:18;;;;;;;33.13;27.75;;;15.50;99.90;;;;;;5016863;28;20912;-75
2023/04/17 07:30:45;;;;;;;29.27;26.10;;;15.70;99.90;;;;;;5029979;28;20198;-73
2023/04/17 07:33:12;;;;;;;31.63;25.20;;;15.90;99.90;;;;;;5023125;28;20212;-74
2023/04/17 07:35:40;;;;;;;27.43;23.50;;;16.30;99.90;;;;;;5023269;28;21064;-73
2023/04/17 07:38:07;;;;;;;29.77;23.77;;;16.40;99.90;;;;;;5018534;28;20454;-73
2023/04/17 07:40:36;;;;;;;28.00;21.93;;;16.60;99.90;;;;;;5020605;28;20452;-76
2023/04/17 07:43:03;;;;;;;26.13;21.37;;;17.00;99.90;;;;;;5019339;28;20459;-74
2023/04/17 07:45:30;;;;;;;29.60;22.23;;;17.20;99.90;;;;;;5024283;28;20477;-73
2023/04/17 07:47:57;;;;;;;28.33;23.47;;;17.60;99.90;;;;;;5020658;28;20455;-74
2023/04/17 07:50:24;;;;;;;21.17;18.93;;;17.90;99.90;;;;;;5023624;28;20488;-74
2023/04/17 07:52:51;;;;;;;29.30;22.57;;;18.40;99.20;;;;;;5022018;28;20455;-73
2023/04/17 07:55:18;;;;;;;27.13;20.00;;;18.80;96.50;;;;;;5025838;28;20582;-72
2023/04/17 07:57:50;;;;;;;26.23;22.10;;;18.90;95.20;;;;;;5028734;28;20460;-71
2023/04/17 08:00:18;;;;;;;28.67;21.67;;;19.00;96.00;;;;;;5024815;28;20504;-71
2023/04/17 08:02:46;;;;;;;28.20;21.93;;;19.20;94.90;;;;;;5018381;28;20473;-74
2023/04/17 08:05:12;;;;;;;23.97;21.47;;;19.50;94.70;;;;;;5029169;28;20597;-75
2023/04/17 08:07:41;;;;;;;23.10;20.20;;;19.60;93.70;;;;;;5028428;28;20493;-74
2023/04/17 08:10:08;;;;;;;22.43;19.33;;;20.00;94.40;;;;;;5028206;28;20468;-74
2023/04/17 08:12:35;;;;;;;25.57;19.90;;;21.40;92.70;;;;;;5029438;28;20456;-74
2023/04/17 08:15:04;;;;;;;22.47;18.80;;;22.80;90.20;;;;;;5031877;28;20972;-76
2023/04/17 08:17:32;;;;;;;19.57;17.47;;;24.20;85.00;;;;;;5023611;28;20946;-74
2023/04/17 08:20:00;;;;;;;20.43;18.07;;;25.30;79.80;;;;;;5028258;28;20456;-73
2023/04/17 08:22:28;;;;;;;19.07;17.17;;;25.50;76.50;;;;;;5018660;28;20482;-71
2023/04/17 08:24:57;;;;;;;20.57;18.67;;;26.10;74.00;;;;;;5026398;28;20923;-82
2023/04/17 08:27:24;;;;;;;21.70;19.40;;;26.10;74.00;;;;;;5027000;28;20825;-86
2023/04/17 08:29:52;;;;;;;20.07;17.97;;;26.60;73.00;;;;;;5023920;28;20440;-75
2023/04/17 08:32:20;;;;;;;23.10;18.20;;;27.20;70.60;;;;;;5023204;28;20883;-76
2023/04/17 08:34:47;;;;;;;19.23;17.20;;;27.30;69.60;;;;;;5023750;28;20974;-73
2023/04/17 08:37:14;;;;;;;21.87;17.47;;;27.10;68.30;;;;;;5026097;28;20497;-76
2023/04/17 08:39:41;;;;;;;20.20;17.03;;;27.10;68.70;;;;;;5023788;28;20937;-75
2023/04/17 08:42:10;;;;;;;16.23;14.57;;;27.50;66.90;;;;;;5021462;28;20450;-73
2023/04/17 08:44:37;;;;;;;15.83;14.10;;;27.80;62.40;;;;;;5022383;28;20478;-74
2023/04/17 08:47:07;;;;;;;17.17;15.37;;;28.10;62.90;;;;;;5029911;28;20527;-74
2023/04/17 08:49:38;;;;;;;15.63;13.27;;;28.00;61.50;;;;;;5026938;28;20475;-73
2023/04/17 08:52:06;;;;;;;19.83;15.67;;;28.00;59.00;;;;;;5023949;28;20448;-77
2023/04/17 08:54:34;;;;;;;18.90;16.23;;;27.70;61.30;;;;;;5028748;28;20471;-75
2023/04/17 08:57:03;;;;;;;17.03;15.37;;;27.70;60.90;;;;;;5035188;28;20510;-75
2023/04/17 08:59:30;;;;;;;17.13;15.17;;;28.30;59.70;;;;;;5033083;28;20513;-76
2023/04/17 09:02:01;;;;;;;17.90;15.33;;;27.60;59.70;;;;;;5028396;28;20542;-76
2023/04/17 09:04:38;;;;;;;18.80;15.57;;;27.80;61.00;;;;;;5029904;28;20550;-74
2023/04/17 09:07:05;;;;;;;14.60;12.90;;;28.50;61.40;;;;;;5032951;28;20521;-78
2023/04/17 09:09:51;;;;;;;15.83;14.07;;;28.90;59.20;;;;;;5023107;28;20452;-76
2023/04/17 09:12:20;;;;;;;17.50;15.70;;;29.00;58.50;;;;;;5016950;28;20451;-77
2023/04/17 09:14:47;;;;;;;16.67;14.87;;;28.90;58.00;;;;;;5019729;28;20563;-79
2023/04/17 09:17:17;;;;;;;16.83;15.13;;;28.80;58.20;;;;;;5020764;28;20541;-76
2023/04/17 09:20:10;;;;;;;13.60;12.30;;;28.40;58.80;;;;;;5016652;28;20452;-74
2023/04/17 09:22:39;;;;;;;14.67;13.17;;;28.90;58.70;;;;;;5027517;28;20536;-76
2023/04/17 09:25:15;;;;;;;15.57;14.07;;;29.30;56.40;;;;;;5026128;28;20505;-75
2023/04/17 09:27:42;;;;;;;16.53;13.60;;;28.70;55.60;;;;;;5030436;28;20439;-76
2023/04/17 09:30:10;;;;;;;17.07;14.00;;;28.10;56.90;;;;;;5034336;28;21027;-76
2023/04/17 09:32:38;;;;;;;16.83;13.10;;;27.50;57.30;;;;;;5036750;28;20446;-74
2023/04/17 09:35:07;;;;;;;15.90;13.60;;;26.50;57.50;;;;;;5038596;28;21035;-76
2023/04/17 09:37:48;;;;;;;15.87;14.17;;;26.00;59.60;;;;;;5021497;28;20561;-73
2023/04/17 09:40:16;;;;;;;15.50;14.00;;;26.50;61.20;;;;;;5020977;28;20455;-75
2023/04/17 09:42:54;;;;;;;16.93;12.77;;;26.70;59.50;;;;;;5029266;28;20929;-75
2023/04/17 09:45:23;;;;;;;16.83;13.73;;;26.40;59.90;;;;;;5020921;28;20969;-75
2023/04/17 09:47:50;;;;;;;15.20;13.17;;;26.20;60.00;;;;;;5027714;28;20805;-73
2023/04/17 09:50:21;;;;;;;14.87;12.87;;;26.10;61.10;;;;;;5029969;28;20515;-73
2023/04/17 09:52:50;;;;;;;16.13;13.50;;;25.80;60.40;;;;;;5028502;28;20451;-74
2023/04/17 09:55:21;;;;;;;13.77;12.07;;;25.60;61.70;;;;;;5027327;28;20471;-73
2023/04/17 09:57:50;;;;;;;13.80;11.70;;;25.70;60.80;;;;;;5029270;28;20981;-72
2023/04/17 10:00:19;;;;;;;13.27;11.97;;;25.50;60.60;;;;;;5020972;28;20900;-72
2023/04/17 10:02:50;;;;;;;12.97;11.67;;;25.90;61.20;;;;;;5029437;28;20559;-74
2023/04/17 10:05:20;;;;;;;14.33;12.83;;;26.30;60.40;;;;;;5024603;28;20481;-73
2023/04/17 10:07:47;;;;;;;12.60;11.33;;;27.00;59.10;;;;;;5023808;28;20498;-72
2023/04/17 10:10:23;;;;;;;13.90;12.37;;;27.50;59.00;;;;;;5027772;28;20514;-74
2023/04/17 10:12:54;;;;;;;14.10;12.20;;;27.80;57.80;;;;;;5022524;28;20489;-75
2023/04/17 10:15:23;;;;;;;12.60;10.93;;;27.40;57.40;;;;;;5026831;28;20528;-74
2023/04/17 10:17:50;;;;;;;19.93;10.97;;;26.90;58.20;;;;;;5028611;28;20508;-72
2023/04/17 10:20:38;;;;;;;10.43;9.40;;;27.20;57.00;;;;;;5025761;28;20899;-73
2023/04/17 10:23:31;;;;;;;10.43;9.43;;;27.60;56.40;;;;;;5029887;28;20534;-74
2023/04/17 10:26:31;;;;;;;10.20;9.17;;;27.80;56.50;;;;;;5017610;28;20444;-75
2023/04/17 10:28:58;;;;;;;10.97;10.07;;;27.60;55.70;;;;;;5019013;28;20516;-71
2023/04/17 10:32:06;;;;;;;12.03;9.43;;;27.40;55.90;;;;;;5025458;28;20539;-71
2023/04/17 10:34:36;;;;;;;14.27;11.90;;;27.20;56.90;;;;;;5024689;28;20470;-74
2023/04/17 10:37:04;;;;;;;11.23;10.10;;;26.30;57.40;;;;;;5016081;28;20893;-73
2023/04/17 10:39:55;;;;;;;11.30;10.20;;;25.60;59.10;;;;;;5026358;28;20454;-73
2023/04/17 10:42:24;;;;;;;12.03;10.83;;;24.80;59.60;;;;;;5022788;28;20455;-73
2023/04/17 10:44:58;;;;;;;13.73;11.33;;;24.20;61.00;;;;;;5017917;28;20464;-74
2023/04/17 10:47:33;;;;;;;10.63;9.53;;;23.30;62.40;;;;;;5022487;28;20442;-75
2023/04/17 10:50:02;;;;;;;16.47;11.33;;;22.60;64.10;;;;;;5028991;28;20951;-74
2023/04/17 10:52:43;;;;;;;11.43;10.33;;;22.40;66.00;;;;;;5026102;28;20534;-74
2023/04/17 10:55:14;;;;;;;13.00;10.10;;;22.30;64.90;;;;;;5024888;28;20467;-73
2023/04/17 10:57:54;;;;;;;15.33;10.50;;;22.30;65.20;;;;;;5031431;28;20569;-75
2023/04/17 11:00:28;;;;;;;11.30;10.10;;;22.40;65.40;;;;;;5023929;28;20444;-75
2023/04/17 11:02:55;;;;;;;11.53;10.33;;;22.40;65.20;;;;;;5016235;28;20829;-74
2023/04/17 11:05:22;;;;;;;13.30;11.10;;;22.30;66.10;;;;;;5018617;28;20490;-76
2023/04/17 11:07:51;;;;;;;14.13;11.63;;;22.20;67.50;;;;;;5027117;28;20805;-76
2023/04/17 11:10:19;;;;;;;13.00;10.20;;;22.30;68.10;;;;;;5027367;28;20538;-75
2023/04/17 11:12:47;;;;;;;13.17;11.87;;;22.40;67.80;;;;;;5026818;28;20821;-76
2023/04/17 11:15:15;;;;;;;12.07;10.87;;;22.30;67.10;;;;;;5031344;28;21154;-74
2023/04/17 11:17:47;;;;;;;14.20;11.47;;;22.40;68.30;;;;;;5018881;28;20491;-74
2023/04/17 11:20:16;;;;;;;12.50;11.10;;;21.80;67.40;;;;;;5030045;28;20507;-74
2023/04/17 11:22:44;;;;;;;12.40;11.20;;;21.20;69.00;;;;;;5027591;28;20462;-73
2023/04/17 11:25:21;;;;;;;12.53;10.20;;;20.80;68.50;;;;;;5031664;28;20470;-73
2023/04/17 11:27:51;;;;;;;12.93;11.63;;;20.70;69.20;;;;;;5026332;28;20440;-75
2023/04/17 11:30:29;;;;;;;13.80;11.60;;;20.70;69.80;;;;;;5021435;28;20454;-73
2023/04/17 11:32:58;;;;;;;15.20;12.80;;;20.70;70.90;;;;;;5030470;28;20492;-72
2023/04/17 11:35:29;;;;;;;13.50;12.10;;;20.90;70.80;;;;;;5026258;28;20499;-72
2023/04/17 11:38:07;;;;;;;14.70;12.20;;;21.00;70.30;;;;;;5027929;28;20494;-75
2023/04/17 11:40:35;;;;;;;13.40;11.83;;;20.90;72.00;;;;;;5033192;28;20531;-73
2023/04/17 11:43:10;;;;;;;10.83;9.83;;;21.00;71.40;;;;;;5035271;28;20457;-74
2023/04/17 11:45:37;;;;;;;11.50;10.20;;;21.30;70.90;;;;;;5024899;28;20536;-73
2023/04/17 11:48:04;;;;;;;14.20;11.87;;;21.40;69.00;;;;;;5027957;28;20443;-73
2023/04/17 11:50:32;;;;;;;15.33;11.00;;;21.40;69.70;;;;;;5031745;28;20553;-75
2023/04/17 11:53:00;;;;;;;12.97;11.60;;;21.40;69.50;;;;;;5031215;28;21085;-75
2023/04/17 11:55:30;;;;;;;14.23;12.83;;;21.30;69.70;;;;;;5027402;28;20564;-76
2023/04/17 11:57:59;;;;;;;17.40;11.80;;;21.10;70.20;;;;;;5029408;28;20471;-73
2023/04/17 12:00:29;;;;;;;13.10;11.37;;;21.00;70.70;;;;;;5022383;28;21005;-72
2023/04/17 12:02:57;;;;;;;14.37;10.70;;;20.80;69.70;;;;;;5024562;28;20474;-70
2023/04/17 12:05:25;;;;;;;11.23;10.03;;;20.90;70.10;;;;;;5031227;28;20482;-74
2023/04/17 12:08:03;;;;;;;13.63;11.13;;;21.00;70.10;;;;;;5034557;28;20436;-72
2023/04/17 12:10:40;;;;;;;10.43;9.27;;;21.00;69.60;;;;;;5033790;28;20477;-72
2023/04/17 12:13:09;;;;;;;13.07;9.77;;;21.10;69.60;;;;;;5019763;28;20449;-73
2023/04/17 12:15:36;;;;;;;10.27;9.37;;;20.90;66.40;;;;;;5024785;28;20536;-71
2023/04/17 12:18:05;;;;;;;9.67;8.80;;;20.70;66.20;;;;;;5026779;28;20470;-70
2023/04/17 12:20:36;;;;;;;9.70;7.90;;;20.60;66.10;;;;;;5030004;28;20463;-71
2023/04/17 12:23:04;;;;;;;9.30;8.27;;;20.60;66.90;;;;;;5028856;28;20503;-74
2023/04/17 12:25:31;;;;;;;10.20;8.60;;;20.70;66.70;;;;;;5032231;28;20469;-72
2023/04/17 12:27:59;;;;;;;14.57;9.90;;;20.60;67.70;;;;;;5028780;28;20538;-74
2023/04/17 12:30:28;;;;;;;13.10;9.33;;;20.70;68.00;;;;;;5031209;28;20557;-74
2023/04/17 12:32:55;;;;;;;9.40;8.37;;;20.70;68.20;;;;;;5020800;28;20534;-73
2023/04/17 12:35:23;;;;;;;11.43;9.43;;;20.70;67.40;;;;;;5029582;28;20470;-74
2023/04/17 12:37:51;;;;;;;10.07;9.07;;;20.50;67.40;;;;;;5027573;28;20490;-75